Main page
METAR-TAF:

METAR-TAF

Airports :

Grenchen Airport

Grenchen, Switzerland

latitude: 47-10-53N, longitude: 007-24-59E, elevation: 430 m

Current weather observation

The report was made 29 minutes ago, at 02:50 UTC
Wind 1 kt from the North/Northwest
Temperature 14°C
Humidity 100%
Pressure 1013 hPa
Visibility 10 km or more
no clouds below 1500 m and no cumulonimbus

METAR: LSZG 250250Z AUTO 34001KT CAVOK 14/14 Q1013

Time: 05:19 (03:19 UTC)

Forecast

The report was made 54 minutes ago, at 02:25 UTC
Forecast valid from 25 at 03 UTC to 25 at 12 UTC
Wind 2 kt from variable directions
Visibility 10 km or more
no clouds below 1500 m and no cumulonimbus
Becoming
from 25 at 07 UTC to 25 at 10 UTC
Visibility 10 km or more
Few clouds at a height of 4500 ft

TAF: LSZG 250225Z 2503/2512 VRB02KT CAVOK BECMG 2507/2510 9999 FEW045

Weather observations and forecasts of more than 4000 airports (METAR and TAF reports).

The available stations are represented by yellow and red dots on the map.

Hover mouse over dot to see the name of the station.

Then click to see weather observations and forecasts.

To change the map : click on the green buttons with a black cross to zoom in, on the green button with a dash to zoom out, or on the green arrows for adjacent maps.


METAR-TAF: